Time;durP1;ratioP1;P1;durP2;ratioP2;P2;SDS_P1;SDS_P2;PMS_P1;PMS_P2;Temp;Humidity;BMP_temperature;BMP_pressure;BME280_temperature;BME280_humidity;BME280_pressure;Samples;Min_cycle;Max_cycle;Signal;HPM_P1;HPM_P2
2021/07/12 00:00:08;;;;;;;;;;;;;;;18.96;100.00;99435.22;1719331;82;21107;-66
2021/07/12 00:02:34;;;;;;;;;;;;;;;18.92;100.00;99435.63;1718259;82;20125;-67
2021/07/12 00:05:01;;;;;;;;;;;;;;;18.90;100.00;99435.13;1734257;82;20164;-66
2021/07/12 00:07:27;;;;;;;;;;;;;;;18.90;100.00;99435.13;1731039;82;20081;-66
2021/07/12 00:09:55;;;;;;;;;;;;;;;18.85;100.00;99434.13;1726264;81;20117;-66
2021/07/12 00:12:22;;;;;;;;;;;;;;;18.80;100.00;99432.11;1752094;81;21187;-67
2021/07/12 00:14:50;;;;;;;;;;;;;;;18.77;100.00;99436.82;1757221;81;20094;-67
2021/07/12 00:17:16;;;;;;;;;;;;;;;18.74;100.00;99438.75;1757132;81;20171;-66
2021/07/12 00:19:44;;;;;;;;;;;;;;;18.71;100.00;99435.30;1757048;81;20098;-67
2021/07/12 00:22:11;;;;;;;;;;;;;;;18.68;100.00;99429.93;1757116;81;20078;-67
2021/07/12 00:24:37;;;;;;;;;;;;;;;18.66;100.00;99430.79;1780706;80;21149;-67
2021/07/12 00:27:04;;;;;;;;;;;;;;;18.68;100.00;99434.57;1780948;80;20092;-67
2021/07/12 00:29:31;;;;;;;;;;;;;;;18.64;100.00;99432.48;1780818;80;20089;-67
2021/07/12 00:31:57;;;;;;;;;;;;;;;18.63;100.00;99431.41;1780770;79;20097;-66
2021/07/12 00:34:23;;;;;;;;;;;;;;;18.63;100.00;99432.77;1780746;80;20306;-67
2021/07/12 00:36:50;;;;;;;;;;;;;;;18.61;100.00;99433.08;1780566;80;21133;-67
2021/07/12 00:39:18;;;;;;;;;;;;;;;18.66;100.00;99437.59;1780767;80;20077;-67
2021/07/12 00:41:47;;;;;;;;;;;;;;;18.78;100.00;99439.77;1753610;81;20118;-68
2021/07/12 00:44:13;;;;;;;;;;;;;;;18.83;100.00;99430.13;1726570;81;20108;-67
2021/07/12 00:46:39;;;;;;;;;;;;;;;18.83;100.00;99432.28;1726448;81;20117;-67
2021/07/12 00:49:06;;;;;;;;;;;;;;;18.83;100.00;99432.84;1726181;83;21069;-66
2021/07/12 00:51:33;;;;;;;;;;;;;;;18.88;100.00;99430.55;1726072;81;20422;-66
2021/07/12 00:53:59;;;;;;;;;;;;;;;18.91;100.00;99436.16;1741874;81;20079;-66
2021/07/12 00:56:27;;;;;;;;;;;;;;;18.95;100.00;99433.62;1757074;81;20086;-66
2021/07/12 00:59:09;;;;;;;;;;;;;;;18.89;100.00;99424.81;1761160;81;20079;-67
2021/07/12 01:01:44;;;;;;;;;;;;;;;18.83;100.00;99430.13;1731451;81;21751;-67
2021/07/12 01:04:11;;;;;;;;;;;;;;;18.80;100.00;99428.83;1756725;81;20119;-66
2021/07/12 01:06:37;;;;;;;;;;;;;;;18.75;100.00;99430.30;1760886;81;20143;-67
2021/07/12 01:09:06;;;;;;;;;;;;;;;18.72;100.00;99432.84;1747273;81;20114;-66
2021/07/12 01:11:54;;;;;;;;;;;;;;;18.70;100.00;99433.14;1747348;82;20099;-66
2021/07/12 01:14:42;;;;;;;;;;;;;;;18.69;100.00;99431.55;1765812;81;21720;-67
2021/07/12 01:17:39;;;;;;;;;;;;;;;18.66;100.00;99428.63;1728351;83;20080;-67
2021/07/12 01:20:22;;;;;;;;;;;;;;;18.56;100.00;99427.77;1688048;84;20114;-67
2021/07/12 01:22:57;;;;;;;;;;;;;;;18.46;100.00;99428.59;1653400;87;20153;-65
2021/07/12 01:25:49;;;;;;;;;;;;;;;18.45;100.00;99426.96;1645608;86;20426;-67
2021/07/12 01:28:41;;;;;;;;;;;;;;;18.35;100.00;99428.05;1642475;86;21151;-66
2021/07/12 01:31:40;;;;;;;;;;;;;;;18.29;100.00;99429.25;1641268;86;20099;-67
2021/07/12 01:34:13;;;;;;;;;;;;;;;18.25;100.00;99428.25;1642285;87;20104;-67
2021/07/12 01:37:04;;;;;;;;;;;;;;;18.15;100.00;99430.66;1642345;86;20567;-67
2021/07/12 01:39:33;;;;;;;;;;;;;;;18.07;100.00;99425.96;1642459;87;20119;-67
2021/07/12 01:42:04;;;;;;;;;;;;;;;18.00;100.00;99431.24;1642147;86;21138;-68
2021/07/12 01:44:45;;;;;;;;;;;;;;;17.94;100.00;99428.97;1642548;85;20096;-68
2021/07/12 01:47:15;;;;;;;;;;;;;;;17.88;100.00;99427.46;1642715;86;20099;-67
2021/07/12 01:50:01;;;;;;;;;;;;;;;17.87;100.00;99428.58;1642008;86;20087;-67
2021/07/12 01:52:43;;;;;;;;;;;;;;;17.87;100.00;99426.66;1595780;89;20124;-66
2021/07/12 01:55:19;;;;;;;;;;;;;;;17.86;100.00;99428.31;1597352;88;21152;-67
2021/07/12 01:57:59;;;;;;;;;;;;;;;17.82;100.00;99424.63;1595737;88;20438;-66
2021/07/12 02:00:26;;;;;;;;;;;;;;;17.77;100.00;99424.94;1625818;87;20133;-66
2021/07/12 02:02:58;;;;;;;;;;;;;;;17.79;100.00;99434.15;1625878;87;20190;-67
2021/07/12 02:05:30;;;;;;;;;;;;;;;17.75;100.00;99436.66;1625305;86;20138;-67
2021/07/12 02:07:57;;;;;;;;;;;;;;;17.74;100.00;99435.06;1637887;86;21125;-67
2021/07/12 02:10:27;;;;;;;;;;;;;;;17.77;100.00;99437.16;1658305;85;20148;-65
2021/07/12 02:12:56;;;;;;;;;;;;;;;17.82;100.00;99439.55;1658959;85;20119;-66
2021/07/12 02:15:23;;;;;;;;;;;;;;;17.84;100.00;99440.06;1658175;86;20405;-66
2021/07/12 02:17:51;;;;;;;;;;;;;;;17.84;100.00;99435.98;1658521;86;20154;-66
2021/07/12 02:20:20;;;;;;;;;;;;;;;17.86;100.00;99433.74;1659319;85;21837;-67
2021/07/12 02:22:47;;;;;;;;;;;;;;;17.94;100.00;99442.55;1658522;86;20111;-67
2021/07/12 02:25:16;;;;;;;;;;;;;;;18.05;100.00;99445.27;1659046;85;20118;-67
2021/07/12 02:27:43;;;;;;;;;;;;;;;18.16;100.00;99442.58;1678937;81;20128;-66
2021/07/12 02:30:10;;;;;;;;;;;;;;;18.26;100.00;99441.55;1719511;82;20120;-66
2021/07/12 02:32:38;;;;;;;;;;;;;;;18.31;100.00;99433.83;1746287;81;21113;-67
2021/07/12 02:35:08;;;;;;;;;;;;;;;18.34;100.00;99435.36;1746160;81;20131;-64
2021/07/12 02:37:37;;;;;;;;;;;;;;;18.39;100.00;99436.59;1743525;81;20147;-67
2021/07/12 02:40:08;;;;;;;;;;;;;;;18.44;100.00;99442.47;1746420;81;20139;-67
2021/07/12 02:42:39;;;;;;;;;;;;;;;18.46;100.00;99445.69;1746251;81;20199;-67
2021/07/12 02:45:08;;;;;;;;;;;;;;;18.52;100.00;99445.00;1746217;81;21157;-71
2021/07/12 02:47:36;;;;;;;;;;;;;;;18.55;100.00;99443.05;1746193;81;20136;-68
2021/07/12 02:50:05;;;;;;;;;;;;;;;18.56;100.00;99452.80;1746188;81;20171;-69
2021/07/12 02:52:50;;;;;;;;;;;;;;;18.57;100.00;99440.27;1719516;81;20449;-69
2021/07/12 02:55:17;;;;;;;;;;;;;;;18.56;100.00;99448.16;1746222;80;20149;-69
2021/07/12 02:57:44;;;;;;;;;;;;;;;18.56;100.00;99435.13;1746232;81;21106;-70
2021/07/12 03:00:12;;;;;;;;;;;;;;;18.59;100.00;99435.86;1743806;81;20179;-69
2021/07/12 03:02:39;;;;;;;;;;;;;;;18.69;100.00;99433.45;1746508;81;20441;-69
2021/07/12 03:05:08;;;;;;;;;;;;;;;18.82;100.00;99438.05;1746736;81;20148;-69
2021/07/12 03:07:47;;;;;;;;;;;;;;;18.99;100.00;99438.14;1743578;81;20132;-68
2021/07/12 03:10:19;;;;;;;;;;;;;;;19.14;100.00;99437.48;1746499;81;20108;-69
2021/07/12 03:12:57;;;;;;;;;;;;;;;19.30;100.00;99437.30;1746372;82;20446;-68
2021/07/12 03:15:43;;;;;;;;;;;;;;;19.43;100.00;99434.24;1746414;81;20120;-69
2021/07/12 03:18:33;;;;;;;;;;;;;;;19.55;100.00;99432.25;1746284;81;20132;-69
2021/07/12 03:21:02;;;;;;;;;;;;;;;19.69;100.00;99435.12;1746243;81;20113;-69
2021/07/12 03:23:32;;;;;;;;;;;;;;;19.80;100.00;99428.83;1746458;81;21100;-69
2021/07/12 03:25:59;;;;;;;;;;;;;;;19.89;100.00;99429.65;1745760;81;20124;-68
2021/07/12 03:28:25;;;;;;;;;;;;;;;19.97;100.00;99433.50;1746341;81;20145;-69
2021/07/12 03:30:53;;;;;;;;;;;;;;;20.07;100.00;99437.84;1719437;82;20514;-69
2021/07/12 03:33:22;;;;;;;;;;;;;;;20.17;100.00;99429.91;1746561;81;20454;-69
2021/07/12 03:35:51;;;;;;;;;;;;;;;20.28;100.00;99427.08;1746494;81;21046;-69
2021/07/12 03:38:19;;;;;;;;;;;;;;;20.44;100.00;99435.59;1719032;82;20461;-69
2021/07/12 03:40:47;;;;;;;;;;;;;;;20.68;100.00;99433.17;1746193;81;20120;-69
2021/07/12 03:43:15;;;;;;;;;;;;;;;20.89;100.00;99436.56;1746203;81;20199;-69
2021/07/12 03:45:43;;;;;;;;;;;;;;;21.00;100.00;99437.03;1746431;82;20478;-69
2021/07/12 03:48:10;;;;;;;;;;;;;;;21.05;100.00;99436.28;1746245;81;21118;-69
2021/07/12 03:50:39;;;;;;;;;;;;;;;21.09;100.00;99439.97;1746501;81;20133;-69
2021/07/12 03:53:05;;;;;;;;;;;;;;;21.17;100.00;99439.13;1746460;81;20461;-69
2021/07/12 03:55:32;;;;;;;;;;;;;;;21.32;100.00;99436.98;1746675;81;20124;-69
2021/07/12 03:57:59;;;;;;;;;;;;;;;21.40;100.00;99442.98;1746485;81;20120;-69
2021/07/12 04:00:28;;;;;;;;;;;;;;;21.51;100.00;99435.22;1746320;81;21122;-69
2021/07/12 04:02:54;;;;;;;;;;;;;;;21.73;100.00;99442.31;1746350;81;20219;-69
2021/07/12 04:05:24;;;;;;;;;;;;;;;21.89;100.00;99442.55;1746434;81;20136;-69
2021/07/12 04:07:57;;;;;;;;;;;;;;;22.03;100.00;99439.00;1746311;81;20171;-69
2021/07/12 04:10:24;;;;;;;;;;;;;;;22.26;100.00;99440.85;1746353;81;20214;-69
2021/07/12 04:12:50;;;;;;;;;;;;;;;22.57;100.00;99439.63;1746385;81;21094;-69
2021/07/12 04:15:17;;;;;;;;;;;;;;;22.83;100.00;99441.53;1746427;81;20120;-69
2021/07/12 04:17:44;;;;;;;;;;;;;;;23.05;100.00;99448.56;1746387;81;20153;-69
2021/07/12 04:20:11;;;;;;;;;;;;;;;23.21;100.00;99443.20;1746157;81;20171;-69
2021/07/12 04:22:38;;;;;;;;;;;;;;;23.29;100.00;99445.03;1746172;81;20108;-69
2021/07/12 04:25:05;;;;;;;;;;;;;;;23.41;100.00;99440.13;1746291;81;21116;-69
2021/07/12 04:27:32;;;;;;;;;;;;;;;23.63;100.00;99441.61;1746507;81;20415;-69
2021/07/12 04:29:58;;;;;;;;;;;;;;;23.83;100.00;99438.53;1746473;81;20406;-69
2021/07/12 04:32:25;;;;;;;;;;;;;;;24.03;100.00;99441.45;1746318;81;20206;-69
2021/07/12 04:34:51;;;;;;;;;;;;;;;24.17;100.00;99445.99;1746221;81;20144;-69
2021/07/12 04:37:17;;;;;;;;;;;;;;;24.28;100.00;99442.20;1746423;81;21144;-69
2021/07/12 04:39:45;;;;;;;;;;;;;;;24.43;100.00;99449.69;1746107;81;20128;-69
2021/07/12 04:42:12;;;;;;;;;;;;;;;24.43;100.00;99446.95;1746481;81;20402;-69
2021/07/12 04:44:38;;;;;;;;;;;;;;;24.35;100.00;99443.76;1746108;81;20120;-69
2021/07/12 04:47:05;;;;;;;;;;;;;;;24.39;100.00;99435.06;1746355;81;20193;-69
2021/07/12 04:49:31;;;;;;;;;;;;;;;24.51;100.00;99439.16;1746222;81;22247;-69
2021/07/12 04:51:57;;;;;;;;;;;;;;;24.64;100.00;99448.70;1765218;81;20098;-69
2021/07/12 04:54:24;;;;;;;;;;;;;;;24.62;100.00;99446.33;1734300;81;20112;-69
2021/07/12 04:56:50;;;;;;;;;;;;;;;24.55;100.00;99445.55;1754414;81;20083;-69
2021/07/12 04:59:23;;;;;;;;;;;;;;;24.47;100.00;99444.31;1728137;81;20113;-69
2021/07/12 05:01:45;;;;;;;;;;;;;;;24.38;100.00;99447.20;1748176;81;21109;-69
2021/07/12 05:04:11;;;;;;;;;;;;;;;24.15;100.00;99444.17;1749084;81;20099;-69
2021/07/12 05:06:38;;;;;;;;;;;;;;;23.95;100.00;99442.62;1748015;81;20388;-69
2021/07/12 05:09:06;;;;;;;;;;;;;;;23.90;100.00;99436.00;1741939;81;20100;-69
2021/07/12 05:11:32;;;;;;;;;;;;;;;23.98;100.00;99443.87;1735811;82;20135;-69
2021/07/12 05:13:59;;;;;;;;;;;;;;;24.04;100.00;99434.27;1706239;82;21430;-68
2021/07/12 05:16:25;;;;;;;;;;;;;;;24.16;100.00;99434.23;1735211;82;20162;-69
2021/07/12 05:18:54;;;;;;;;;;;;;;;24.26;100.00;99431.58;1735739;81;20160;-70
2021/07/12 05:21:21;;;;;;;;;;;;;;;24.34;100.00;99436.11;1701524;82;20108;-71
2021/07/12 05:23:47;;;;;;;;;;;;;;;24.47;100.00;99434.72;1707221;82;20092;-72
2021/07/12 05:26:31;;;;;;;;;;;;;;;24.59;100.00;99438.19;1710739;82;21199;-72
2021/07/12 05:29:07;;;;;;;;;;;;;;;24.69;100.00;99440.21;1735815;81;20669;-71
2021/07/12 05:31:35;;;;;;;;;;;;;;;24.75;100.00;99441.56;1709098;82;20163;-71
2021/07/12 05:34:02;;;;;;;;;;;;;;;24.79;100.00;99439.14;1746312;80;20082;-70
2021/07/12 05:36:36;;;;;;;;;;;;;;;24.74;100.00;99428.42;1746154;81;20079;-71
2021/07/12 05:39:03;;;;;;;;;;;;;;;25.07;100.00;99430.63;1744915;80;21174;-70
2021/07/12 05:41:30;;;;;;;;;;;;;;;25.40;100.00;99435.18;1752359;80;20082;-69
2021/07/12 05:43:58;;;;;;;;;;;;;;;25.63;100.00;99441.42;1750487;80;20094;-69
2021/07/12 05:46:25;;;;;;;;;;;;;;;25.86;100.00;99442.36;1750333;82;20185;-70
2021/07/12 05:48:53;;;;;;;;;;;;;;;26.20;100.00;99448.19;1726400;82;20482;-68
2021/07/12 05:51:19;;;;;;;;;;;;;;;26.76;100.00;99451.09;1752183;80;21719;-67
2021/07/12 05:53:46;;;;;;;;;;;;;;;27.04;100.00;99452.17;1752921;80;20090;-67
2021/07/12 05:56:13;;;;;;;;;;;;;;;27.50;100.00;99455.52;1752757;80;20122;-68
2021/07/12 05:58:40;;;;;;;;;;;;;;;27.70;93.20;99452.86;1753139;80;20094;-67
2021/07/12 06:01:06;;;;;;;;;;;;;;;27.75;89.26;99456.67;1753015;80;20114;-68
2021/07/12 06:03:33;;;;;;;;;;;;;;;27.72;91.40;99452.50;1752674;82;21134;-68
2021/07/12 06:05:59;;;;;;;;;;;;;;;27.80;89.41;99457.73;1753037;80;20139;-68
2021/07/12 06:08:26;;;;;;;;;;;;;;;27.68;88.66;99454.40;1751093;80;20393;-67
2021/07/12 06:10:52;;;;;;;;;;;;;;;27.74;89.53;99465.34;1739653;80;20405;-68
2021/07/12 06:13:19;;;;;;;;;;;;;;;27.78;88.46;99463.41;1738111;82;20178;-68
2021/07/12 06:15:45;;;;;;;;;;;;;;;27.98;90.77;99466.30;1739508;80;21073;-68
2021/07/12 06:18:14;;;;;;;;;;;;;;;28.40;86.58;99470.78;1747904;81;20107;-67
2021/07/12 06:20:41;;;;;;;;;;;;;;;28.63;79.19;99474.03;1713073;81;20097;-68
2021/07/12 06:23:07;;;;;;;;;;;;;;;28.66;81.64;99469.72;1775010;80;20116;-68
2021/07/12 06:25:34;;;;;;;;;;;;;;;28.95;77.34;99477.13;1775106;80;20116;-68
2021/07/12 06:28:01;;;;;;;;;;;;;;;29.37;77.89;99481.48;1775339;80;21118;-68
2021/07/12 06:30:29;;;;;;;;;;;;;;;29.66;74.53;99476.20;1779143;79;20082;-68
2021/07/12 06:32:56;;;;;;;;;;;;;;;29.38;71.45;99480.91;1775328;80;20097;-68
2021/07/12 06:35:23;;;;;;;;;;;;;;;29.35;71.54;99483.03;1775175;80;20089;-70
2021/07/12 06:37:50;;;;;;;;;;;;;;;29.35;73.27;99477.51;1777603;80;20149;-69
2021/07/12 06:40:16;;;;;;;;;;;;;;;29.59;74.10;99474.14;1777802;79;21105;-69
2021/07/12 06:42:43;;;;;;;;;;;;;;;29.86;74.09;99480.31;1778130;80;20386;-69
2021/07/12 06:45:11;;;;;;;;;;;;;;;30.25;71.31;99479.73;1770407;80;20148;-69
2021/07/12 06:47:38;;;;;;;;;;;;;;;30.39;66.75;99476.23;1759298;80;20139;-69
2021/07/12 06:50:07;;;;;;;;;;;;;;;30.41;69.77;99475.86;1743706;80;20150;-70
2021/07/12 06:52:34;;;;;;;;;;;;;;;30.76;65.32;99482.87;1744445;80;21032;-69
2021/07/12 06:55:01;;;;;;;;;;;;;;;30.88;63.92;99485.91;1745166;81;20366;-69
2021/07/12 06:57:27;;;;;;;;;;;;;;;31.05;62.87;99482.97;1742002;81;20111;-69
2021/07/12 06:59:55;;;;;;;;;;;;;;;31.05;59.66;99477.43;1717787;81;20130;-69
2021/07/12 07:02:22;;;;;;;;;;;;;;;30.55;59.70;99477.30;1745290;81;20103;-68
2021/07/12 07:04:50;;;;;;;;;;;;;;;30.15;61.62;99481.05;1744316;80;21025;-68
2021/07/12 07:07:16;;;;;;;;;;;;;;;29.59;64.78;99482.44;1745126;80;20427;-69
2021/07/12 07:09:43;;;;;;;;;;;;;;;29.47;67.71;99484.13;1754815;80;20106;-69
2021/07/12 07:12:10;;;;;;;;;;;;;;;29.59;70.85;99485.80;1764713;80;20090;-69
2021/07/12 07:14:42;;;;;;;;;;;;;;;29.97;70.05;99486.49;1763378;81;20094;-69
2021/07/12 07:17:09;;;;;;;;;;;;;;;30.18;67.31;99482.43;1764872;80;21128;-69
2021/07/12 07:19:35;;;;;;;;;;;;;;;30.11;64.67;99485.98;1764845;80;20157;-68
2021/07/12 07:22:02;;;;;;;;;;;;;;;29.93;66.01;99487.05;1765061;80;20146;-67
2021/07/12 07:24:30;;;;;;;;;;;;;;;30.23;64.51;99483.47;1763382;80;20133;-68
2021/07/12 07:26:57;;;;;;;;;;;;;;;30.49;64.56;99482.41;1762189;80;20162;-68
2021/07/12 07:29:23;;;;;;;;;;;;;;;30.47;64.89;99483.37;1764773;80;21132;-68
2021/07/12 07:31:51;;;;;;;;;;;;;;;30.24;71.88;99485.64;1734955;81;20133;-68
2021/07/12 07:34:18;;;;;;;;;;;;;;;30.01;66.66;99490.05;1764444;80;20141;-67
2021/07/12 07:36:46;;;;;;;;;;;;;;;29.73;68.76;99490.68;1764510;81;20145;-67
2021/07/12 07:39:13;;;;;;;;;;;;;;;29.65;69.69;99488.42;1768839;79;20388;-68
2021/07/12 07:41:40;;;;;;;;;;;;;;;29.56;69.22;99488.74;1769119;81;21101;-67
2021/07/12 07:44:07;;;;;;;;;;;;;;;29.43;70.58;99484.11;1768870;80;20121;-67
2021/07/12 07:46:34;;;;;;;;;;;;;;;29.26;68.83;99488.30;1769183;81;20160;-67
2021/07/12 07:49:02;;;;;;;;;;;;;;;28.85;67.63;99491.03;1769134;79;20466;-68
2021/07/12 07:51:29;;;;;;;;;;;;;;;28.42;73.04;99493.29;1769157;79;20137;-67
2021/07/12 07:53:55;;;;;;;;;;;;;;;28.11;74.98;99490.91;1769003;79;21116;-67
2021/07/12 07:56:23;;;;;;;;;;;;;;;27.94;76.57;99493.03;1769313;79;20114;-67
2021/07/12 07:58:49;;;;;;;;;;;;;;;27.74;76.41;99494.29;1769214;79;20082;-67
2021/07/12 08:01:15;;;;;;;;;;;;;;;27.55;80.46;99506.20;1769308;79;20121;-67
2021/07/12 08:03:41;;;;;;;;;;;;;;;27.43;81.79;99502.25;1769281;79;20110;-67
2021/07/12 08:06:08;;;;;;;;;;;;;;;27.36;84.43;99504.30;1769749;79;21701;-67
2021/07/12 08:08:34;;;;;;;;;;;;;;;27.34;86.86;99506.06;1769180;79;20110;-67
2021/07/12 08:11:02;;;;;;;;;;;;;;;27.32;85.90;99501.50;1738160;81;20409;-67
2021/07/12 08:13:30;;;;;;;;;;;;;;;27.38;86.62;99493.71;1722853;81;20165;-67
2021/07/12 08:15:56;;;;;;;;;;;;;;;27.60;87.98;99500.37;1762382;79;20157;-67
2021/07/12 08:18:24;;;;;;;;;;;;;;;27.83;86.84;99494.86;1743746;81;20100;-67
2021/07/12 08:20:51;;;;;;;;;;;;;;;27.85;87.51;99498.61;1733118;82;20397;-67
2021/07/12 08:23:18;;;;;;;;;;;;;;;27.84;87.74;99499.78;1733091;81;20092;-67
2021/07/12 08:25:45;;;;;;;;;;;;;;;27.77;89.10;99494.33;1746212;81;20120;-67
2021/07/12 08:28:12;;;;;;;;;;;;;;;27.49;89.73;99500.20;1746062;82;20414;-67
2021/07/12 08:30:38;;;;;;;;;;;;;;;27.16;88.38;99505.70;1746077;80;21715;-68
2021/07/12 08:33:04;;;;;;;;;;;;;;;26.81;87.33;99496.80;1746248;81;20128;-67
2021/07/12 08:35:30;;;;;;;;;;;;;;;26.51;88.94;99487.16;1746253;81;20069;-67
2021/07/12 08:37:57;;;;;;;;;;;;;;;26.28;93.10;99483.52;1745941;81;20118;-67
2021/07/12 08:40:24;;;;;;;;;;;;;;;26.05;93.81;99482.05;1746359;82;20438;-66
2021/07/12 08:42:53;;;;;;;;;;;;;;;25.97;94.09;99483.03;1746190;82;20085;-67
2021/07/12 08:45:20;;;;;;;;;;;;;;;25.93;92.03;99476.68;1746040;81;20081;-67
2021/07/12 08:47:48;;;;;;;;;;;;;;;25.93;93.25;99473.93;1746056;81;20152;-66
2021/07/12 08:50:15;;;;;;;;;;;;;;;26.02;93.65;99475.91;1745927;82;20169;-67
2021/07/12 08:52:43;;;;;;;;;;;;;;;26.19;96.29;99477.42;1746099;82;20407;-67
2021/07/12 08:55:10;;;;;;;;;;;;;;;26.35;94.63;99482.30;1746294;81;21749;-65
2021/07/12 08:57:36;;;;;;;;;;;;;;;26.41;96.02;99488.30;1742125;81;20108;-66
2021/07/12 09:00:04;;;;;;;;;;;;;;;26.46;93.73;99491.58;1732249;81;20143;-66
2021/07/12 09:02:30;;;;;;;;;;;;;;;26.52;90.49;99501.12;1733210;81;20150;-67
2021/07/12 09:04:57;;;;;;;;;;;;;;;26.49;91.55;99501.06;1710420;83;20115;-66
2021/07/12 09:07:27;;;;;;;;;;;;;;;26.45;95.60;99504.31;1740027;81;21182;-67
2021/07/12 09:10:04;;;;;;;;;;;;;;;26.47;93.98;99498.66;1752132;80;20433;-68
2021/07/12 09:12:47;;;;;;;;;;;;;;;26.44;94.09;99491.14;1762182;81;20398;-68
2021/07/12 09:15:16;;;;;;;;;;;;;;;26.62;94.13;99495.65;1762303;80;21180;-69
2021/07/12 09:17:45;;;;;;;;;;;;;;;26.82;96.67;99498.38;1762242;81;20088;-68
2021/07/12 09:20:13;;;;;;;;;;;;;;;27.06;94.25;99503.56;1761809;81;21085;-69
2021/07/12 09:22:41;;;;;;;;;;;;;;;27.21;92.20;99505.23;1762077;81;20136;-69
2021/07/12 09:25:09;;;;;;;;;;;;;;;27.41;90.03;99505.37;1760762;80;20149;-69
2021/07/12 09:27:38;;;;;;;;;;;;;;;27.59;88.05;99498.79;1739149;81;20384;-69
2021/07/12 09:30:12;;;;;;;;;;;;;;;28.04;84.36;99494.95;1746109;80;20161;-68
2021/07/12 09:32:42;;;;;;;;;;;;;;;28.60;75.44;99503.19;1755898;80;21134;-68
2021/07/12 09:35:12;;;;;;;;;;;;;;;28.79;73.92;99506.37;1763785;80;20139;-68
2021/07/12 09:37:40;;;;;;;;;;;;;;;28.92;73.81;99509.66;1762452;80;20126;-68
2021/07/12 09:40:09;;;;;;;;;;;;;;;29.01;68.37;99506.02;1763550;80;20094;-67
2021/07/12 09:42:39;;;;;;;;;;;;;;;29.73;67.75;99507.27;1763037;80;20436;-67
2021/07/12 09:45:11;;;;;;;;;;;;;;;30.10;62.77;99507.89;1762887;80;21136;-67
2021/07/12 09:47:40;;;;;;;;;;;;;;;30.17;62.50;99506.36;1758330;81;20141;-68
2021/07/12 09:50:11;;;;;;;;;;;;;;;30.16;64.23;99502.81;1760466;80;20180;-68
2021/07/12 09:52:52;;;;;;;;;;;;;;;30.13;64.83;99504.38;1734278;82;20136;-68
2021/07/12 09:55:30;;;;;;;;;;;;;;;29.83;61.53;99501.02;1714595;83;20137;-68
2021/07/12 09:58:16;;;;;;;;;;;;;;;29.44;63.84;99501.48;1759635;80;21142;-68
2021/07/12 10:00:52;;;;;;;;;;;;;;;29.42;65.41;99506.59;1766532;81;20086;-68
2021/07/12 10:03:40;;;;;;;;;;;;;;;29.68;62.42;99513.36;1723295;82;20153;-67
2021/07/12 10:06:06;;;;;;;;;;;;;;;29.88;63.44;99513.09;1729980;82;20089;-68
2021/07/12 10:08:32;;;;;;;;;;;;;;;29.89;63.71;99518.27;1690700;84;20183;-67
2021/07/12 10:10:59;;;;;;;;;;;;;;;29.68;65.01;99521.66;1689942;85;21386;-67
2021/07/12 10:13:25;;;;;;;;;;;;;;;29.40;68.43;99524.97;1687639;85;20155;-68
2021/07/12 10:15:51;;;;;;;;;;;;;;;29.36;67.89;99521.96;1688386;85;20402;-68
2021/07/12 10:18:17;;;;;;;;;;;;;;;29.54;69.31;99520.13;1690934;85;20111;-68
2021/07/12 10:20:44;;;;;;;;;;;;;;;29.28;69.04;99521.89;1641071;84;20179;-69
2021/07/12 10:23:12;;;;;;;;;;;;;;;28.98;71.64;99527.50;1686705;84;22332;-69
2021/07/12 10:25:39;;;;;;;;;;;;;;;28.62;72.97;99529.84;1692276;85;20435;-69
2021/07/12 10:28:06;;;;;;;;;;;;;;;28.36;76.15;99525.73;1697964;83;20128;-69
2021/07/12 10:30:36;;;;;;;;;;;;;;;28.38;78.54;99521.42;1716319;81;20110;-69
2021/07/12 10:33:07;;;;;;;;;;;;;;;28.42;77.47;99512.61;1760755;80;20099;-69
2021/07/12 10:35:46;;;;;;;;;;;;;;;28.55;76.75;99506.88;1761365;80;21061;-69
2021/07/12 10:38:29;;;;;;;;;;;;;;;28.73;76.47;99498.80;1731369;81;20428;-69
2021/07/12 10:40:58;;;;;;;;;;;;;;;28.98;72.60;99494.91;1761350;80;20176;-70
2021/07/12 10:43:45;;;;;;;;;;;;;;;29.34;75.16;99491.92;1761452;80;20389;-67
2021/07/12 10:46:28;;;;;;;;;;;;;;;29.61;69.88;99487.59;1751257;80;20087;-67
2021/07/12 10:48:56;;;;;;;;;;;;;;;29.75;69.27;99488.33;1744562;81;21105;-68
2021/07/12 10:51:26;;;;;;;;;;;;;;;29.81;73.29;99482.03;1752001;80;20129;-67
2021/07/12 10:54:09;;;;;;;;;;;;;;;29.98;70.82;99477.00;1744597;81;20177;-68
2021/07/12 10:57:00;;;;;;;;;;;;;;;30.24;69.44;99480.11;1747397;81;20122;-68
2021/07/12 10:59:35;;;;;;;;;;;;;;;30.36;69.88;99474.85;1748011;81;20148;-67
2021/07/12 11:02:11;;;;;;;;;;;;;;;30.44;65.62;99467.55;1751617;80;20981;-68
2021/07/12 11:04:45;;;;;;;;;;;;;;;30.91;62.50;99464.33;1746917;81;20148;-68
2021/07/12 11:07:14;;;;;;;;;;;;;;;31.39;60.56;99472.33;1742628;80;20137;-68
2021/07/12 11:09:56;;;;;;;;;;;;;;;31.70;61.04;99461.61;1729081;81;20522;-67
2021/07/12 11:12:29;;;;;;;;;;;;;;;31.61;60.83;99458.45;1718257;83;20181;-69
2021/07/12 11:15:11;;;;;;;;;;;;;;;31.61;59.30;99448.73;1718780;81;21128;-67
2021/07/12 11:18:01;;;;;;;;;;;;;;;31.29;62.04;99449.53;1723947;81;20410;-65
2021/07/12 11:20:48;;;;;;;;;;;;;;;31.25;64.17;99439.63;1723674;81;20128;-67
2021/07/12 11:23:43;;;;;;;;;;;;;;;31.33;62.40;99437.81;1723936;81;20085;-66
2021/07/12 11:26:29;;;;;;;;;;;;;;;31.14;63.51;99424.39;1724492;81;20093;-66
2021/07/12 11:29:01;;;;;;;;;;;;;;;31.21;63.47;99413.27;1724324;81;21139;-66
2021/07/12 11:31:54;;;;;;;;;;;;;;;30.97;66.56;99400.42;1678770;82;20096;-66
2021/07/12 11:34:32;;;;;;;;;;;;;;;30.88;68.31;99390.31;1724154;82;20152;-67
2021/07/12 11:37:11;;;;;;;;;;;;;;;31.03;64.78;99385.56;1724473;81;20093;-67
2021/07/12 11:39:43;;;;;;;;;;;;;;;31.26;66.58;99385.17;1721432;81;20166;-67
2021/07/12 11:42:18;;;;;;;;;;;;;;;31.42;67.70;99375.06;1706395;83;21704;-65
2021/07/12 11:44:50;;;;;;;;;;;;;;;31.35;63.00;99374.45;1706203;82;20601;-66
2021/07/12 11:47:18;;;;;;;;;;;;;;;31.51;65.16;99371.89;1726596;81;20085;-67
2021/07/12 11:49:49;;;;;;;;;;;;;;;31.65;65.46;99359.34;1703200;82;20760;-66
2021/07/12 11:52:15;;;;;;;;;;;;;;;31.57;62.99;99368.28;1726994;81;20156;-65
2021/07/12 11:54:42;;;;;;;;;;;;;;;31.46;63.00;99375.08;1726774;81;21041;-66
2021/07/12 11:57:14;;;;;;;;;;;;;;;31.35;63.77;99375.05;1725884;81;20149;-66
2021/07/12 11:59:43;;;;;;;;;;;;;;;31.52;64.30;99372.08;1715199;83;20193;-65
2021/07/12 12:02:14;;;;;;;;;;;;;;;31.67;64.86;99367.28;1717023;83;20478;-65
2021/07/12 12:05:00;;;;;;;;;;;;;;;31.63;62.74;99384.52;1718024;83;20102;-66
2021/07/12 12:07:36;;;;;;;;;;;;;;;31.50;64.47;99384.95;1718664;82;20411;-65
2021/07/12 12:10:11;;;;;;;;;;;;;;;31.46;62.45;99388.94;1724746;82;20097;-66
2021/07/12 12:12:45;;;;;;;;;;;;;;;31.32;60.99;99388.33;1725816;81;20429;-67
2021/07/12 12:15:26;;;;;;;;;;;;;;;31.19;60.89;99386.56;1725601;82;20485;-68
2021/07/12 12:18:06;;;;;;;;;;;;;;;31.03;64.06;99382.01;1646812;85;20072;-67
2021/07/12 12:20:36;;;;;;;;;;;;;;;31.05;63.97;99379.64;1677217;84;20104;-68
2021/07/12 12:23:17;;;;;;;;;;;;;;;30.96;62.58;99381.41;1635870;86;20102;-67
2021/07/12 12:26:04;;;;;;;;;;;;;;;30.83;63.42;99383.00;1635520;86;20126;-67
2021/07/12 12:28:36;;;;;;;;;;;;;;;30.92;62.44;99379.25;1662284;84;20854;-67
2021/07/12 12:31:17;;;;;;;;;;;;;;;31.15;60.09;99376.84;1662457;84;20100;-67
2021/07/12 12:33:56;;;;;;;;;;;;;;;31.34;59.29;99385.35;1662348;84;21144;-67
2021/07/12 12:36:31;;;;;;;;;;;;;;;31.28;59.49;99379.21;1662192;84;20096;-68
2021/07/12 12:39:09;;;;;;;;;;;;;;;31.28;59.40;99383.37;1662178;84;20120;-67
2021/07/12 12:41:37;;;;;;;;;;;;;;;31.17;59.72;99382.01;1694841;82;20150;-67
2021/07/12 12:44:11;;;;;;;;;;;;;;;31.36;60.68;99381.59;1700366;82;20158;-68
2021/07/12 12:46:53;;;;;;;;;;;;;;;31.76;61.08;99380.92;1700665;83;21302;-67
2021/07/12 12:49:25;;;;;;;;;;;;;;;32.00;57.85;99374.33;1737982;81;20106;-68
2021/07/12 12:51:53;;;;;;;;;;;;;;;32.05;58.34;99378.67;1759610;81;20087;-67
2021/07/12 12:54:20;;;;;;;;;;;;;;;32.40;58.81;99378.47;1759757;81;20404;-67
2021/07/12 12:56:54;;;;;;;;;;;;;;;32.36;55.44;99374.91;1759284;81;20396;-68
2021/07/12 12:59:32;;;;;;;;;;;;;;;31.85;57.54;99374.95;1759859;81;21835;-68